Time;durP1;ratioP1;P1;durP2;ratioP2;P2;SDS_P1;SDS_P2;PMS_P1;PMS_P2;Temp;Humidity;BMP_temperature;BMP_pressure;BME280_temperature;BME280_humidity;BME280_pressure;Samples;Min_cycle;Max_cycle;Signal;HPM_P1;HPM_P2
2021/07/09 00:02:19;;;;;;;17.83;13.75;;;17.00;95.60;;;;;;5030411;28;20092;-66
2021/07/09 00:04:44;;;;;;;13.40;10.38;;;17.00;95.50;;;;;;5033671;28;20056;-66
2021/07/09 00:07:10;;;;;;;11.75;9.82;;;16.90;95.50;;;;;;5031432;28;20380;-66
2021/07/09 00:09:36;;;;;;;13.63;10.30;;;16.80;95.60;;;;;;5027971;28;20032;-66
2021/07/09 00:12:02;;;;;;;14.65;11.48;;;16.80;95.70;;;;;;5031423;28;20029;-66
2021/07/09 00:14:31;;;;;;;12.63;10.35;;;16.70;95.70;;;;;;5034151;28;20033;-66
2021/07/09 00:16:57;;;;;;;11.88;9.75;;;16.60;95.80;;;;;;5033356;28;20041;-66
2021/07/09 00:19:24;;;;;;;10.75;7.95;;;16.60;95.80;;;;;;5032416;28;20402;-66
2021/07/09 00:21:50;;;;;;;12.57;8.48;;;16.50;95.80;;;;;;5032557;28;20037;-66
2021/07/09 00:24:16;;;;;;;9.48;7.90;;;16.50;95.80;;;;;;5031890;28;20036;-66
2021/07/09 00:26:42;;;;;;;9.43;7.57;;;16.40;95.70;;;;;;5032907;28;20091;-66
2021/07/09 00:29:08;;;;;;;9.90;7.28;;;16.40;95.70;;;;;;5030844;28;20536;-66
2021/07/09 00:31:34;;;;;;;10.32;7.82;;;16.40;95.70;;;;;;5031890;28;20097;-66
2021/07/09 00:34:01;;;;;;;13.02;7.93;;;16.30;95.60;;;;;;5030739;28;20025;-66
2021/07/09 00:36:27;;;;;;;10.55;7.32;;;16.30;95.60;;;;;;5031846;28;20044;-66
2021/07/09 00:38:53;;;;;;;10.60;7.55;;;16.30;95.50;;;;;;5029724;28;20060;-66
2021/07/09 00:41:19;;;;;;;10.90;7.03;;;16.20;95.50;;;;;;5031587;28;20037;-69
2021/07/09 00:43:45;;;;;;;9.57;7.07;;;16.20;95.50;;;;;;5032718;28;20437;-68
2021/07/09 00:46:11;;;;;;;11.23;7.45;;;16.20;95.50;;;;;;5033650;28;20030;-68
2021/07/09 00:48:37;;;;;;;11.80;7.53;;;16.20;95.50;;;;;;5033389;28;20167;-68
2021/07/09 00:51:07;;;;;;;9.85;7.35;;;16.10;95.50;;;;;;5028123;28;20097;-67
2021/07/09 00:53:34;;;;;;;10.73;7.03;;;16.10;95.60;;;;;;5029725;28;20044;-68
2021/07/09 00:56:01;;;;;;;9.65;7.32;;;16.10;95.60;;;;;;5033536;28;20152;-68
2021/07/09 00:58:27;;;;;;;10.77;7.32;;;16.00;95.50;;;;;;5031260;28;20471;-68
2021/07/09 01:00:54;;;;;;;15.95;6.88;;;16.00;95.50;;;;;;5025142;28;20060;-68
2021/07/09 01:03:19;;;;;;;8.90;6.82;;;16.00;95.50;;;;;;5026007;28;20025;-68
2021/07/09 01:05:45;;;;;;;11.07;6.72;;;16.00;95.40;;;;;;5024907;28;20033;-68
2021/07/09 01:08:11;;;;;;;10.25;6.90;;;16.00;95.40;;;;;;5028993;28;20070;-68
2021/07/09 01:10:37;;;;;;;8.52;6.32;;;16.00;95.40;;;;;;5027310;28;20480;-67
2021/07/09 01:13:03;;;;;;;8.98;5.95;;;15.90;95.40;;;;;;5026817;28;20040;-67
2021/07/09 01:15:29;;;;;;;9.85;6.35;;;15.90;95.30;;;;;;5030296;28;20049;-68
2021/07/09 01:17:55;;;;;;;9.75;6.97;;;15.90;95.30;;;;;;5026898;28;20034;-68
2021/07/09 01:20:22;;;;;;;9.98;6.15;;;16.00;95.20;;;;;;5025984;28;20064;-68
2021/07/09 01:22:49;;;;;;;9.10;6.75;;;16.00;95.20;;;;;;5023055;28;20029;-68
2021/07/09 01:25:23;;;;;;;11.18;6.90;;;16.00;95.10;;;;;;5033391;28;20503;-68
2021/07/09 01:27:56;;;;;;;10.63;5.75;;;16.10;95.10;;;;;;5029357;28;20203;-68
2021/07/09 01:30:23;;;;;;;7.60;5.65;;;16.10;95.00;;;;;;5030323;28;20123;-66
2021/07/09 01:32:50;;;;;;;8.25;6.45;;;16.20;95.00;;;;;;5024687;28;20480;-66
2021/07/09 01:35:17;;;;;;;10.38;7.38;;;16.20;94.90;;;;;;5027596;28;20385;-66
2021/07/09 01:38:01;;;;;;;10.27;7.22;;;16.20;94.90;;;;;;5028712;28;20037;-66
2021/07/09 01:40:27;;;;;;;9.40;6.90;;;16.30;94.80;;;;;;5024739;28;20111;-66
2021/07/09 01:42:53;;;;;;;10.23;7.05;;;16.30;94.80;;;;;;5026493;28;20025;-66
2021/07/09 01:45:19;;;;;;;9.85;6.75;;;16.30;94.70;;;;;;5029886;28;20116;-67
2021/07/09 01:47:45;;;;;;;9.95;6.72;;;16.40;94.80;;;;;;5019282;28;20431;-66
2021/07/09 01:50:11;;;;;;;10.68;7.30;;;16.40;94.80;;;;;;5031006;28;20080;-67
2021/07/09 01:52:37;;;;;;;11.30;7.15;;;16.40;94.80;;;;;;5031451;28;20040;-67
2021/07/09 01:55:04;;;;;;;10.05;7.03;;;16.40;94.90;;;;;;5014052;28;20400;-67
2021/07/09 01:57:30;;;;;;;10.23;6.63;;;16.40;94.80;;;;;;5024033;28;20434;-67
2021/07/09 01:59:56;;;;;;;10.10;6.65;;;16.40;94.90;;;;;;5020676;28;20398;-67
2021/07/09 02:02:22;;;;;;;12.07;7.28;;;16.40;94.90;;;;;;5023293;28;20484;-67
2021/07/09 02:04:50;;;;;;;11.23;6.30;;;16.40;95.00;;;;;;5031977;28;20040;-67
2021/07/09 02:07:17;;;;;;;9.65;6.85;;;16.40;95.00;;;;;;5030730;28;20033;-67
2021/07/09 02:09:49;;;;;;;9.68;6.53;;;16.30;95.10;;;;;;5025947;28;20034;-67
2021/07/09 02:12:17;;;;;;;10.32;7.28;;;16.30;95.20;;;;;;5034773;28;20031;-66
2021/07/09 02:14:43;;;;;;;11.05;7.00;;;16.30;95.30;;;;;;5036226;28;20033;-67
2021/07/09 02:17:12;;;;;;;10.18;7.30;;;16.20;95.30;;;;;;5010814;28;20060;-67
2021/07/09 02:19:39;;;;;;;10.85;8.13;;;16.20;95.40;;;;;;4998159;28;20093;-67
2021/07/09 02:22:10;;;;;;;12.35;7.80;;;16.20;95.50;;;;;;5008332;28;20025;-67
2021/07/09 02:24:37;;;;;;;14.25;7.40;;;16.10;95.50;;;;;;5002384;28;20037;-67
2021/07/09 02:27:04;;;;;;;12.05;7.95;;;16.10;95.50;;;;;;5014131;28;20372;-66
2021/07/09 02:29:31;;;;;;;12.75;8.18;;;16.10;95.50;;;;;;5011812;28;20048;-66
2021/07/09 02:31:59;;;;;;;11.82;7.40;;;16.00;95.60;;;;;;5007989;28;20053;-67
2021/07/09 02:34:25;;;;;;;13.20;8.27;;;15.90;95.60;;;;;;5011456;28;20076;-66
2021/07/09 02:36:51;;;;;;;12.43;7.22;;;15.90;96.00;;;;;;5009790;28;20109;-67
2021/07/09 02:39:17;;;;;;;12.70;7.72;;;15.80;95.80;;;;;;5012080;28;20113;-67
2021/07/09 02:41:43;;;;;;;11.75;8.02;;;15.70;95.90;;;;;;5007815;28;20021;-67
2021/07/09 02:44:08;;;;;;;12.70;7.90;;;15.70;96.00;;;;;;5015836;28;20460;-67
2021/07/09 02:46:34;;;;;;;14.63;8.20;;;15.60;96.00;;;;;;5010111;28;20033;-66
2021/07/09 02:48:59;;;;;;;15.77;8.15;;;15.60;96.10;;;;;;5006064;28;20105;-67
2021/07/09 02:51:25;;;;;;;11.02;8.13;;;15.60;96.10;;;;;;5012958;28;20034;-67
2021/07/09 02:53:50;;;;;;;10.30;7.32;;;15.60;96.10;;;;;;4997405;28;20034;-66
2021/07/09 02:56:16;;;;;;;10.48;7.75;;;15.50;96.20;;;;;;5013405;28;20133;-67
2021/07/09 02:58:41;;;;;;;14.15;8.98;;;15.40;96.20;;;;;;5015286;28;20026;-67
2021/07/09 03:01:07;;;;;;;14.60;9.18;;;15.30;96.20;;;;;;5012942;28;20084;-67
2021/07/09 03:03:32;;;;;;;11.82;8.35;;;15.30;96.40;;;;;;5010455;28;20030;-67
2021/07/09 03:05:58;;;;;;;13.27;8.35;;;15.20;96.50;;;;;;5009019;28;20026;-67
2021/07/09 03:08:23;;;;;;;14.15;8.65;;;15.20;96.60;;;;;;5013287;28;20037;-67
2021/07/09 03:10:49;;;;;;;14.95;9.27;;;15.10;96.60;;;;;;5012998;28;20033;-67
2021/07/09 03:13:14;;;;;;;14.15;8.70;;;15.00;96.70;;;;;;5005893;28;20420;-67
2021/07/09 03:15:40;;;;;;;15.80;9.85;;;14.90;96.70;;;;;;5019412;28;20046;-66
2021/07/09 03:18:06;;;;;;;11.75;7.70;;;14.80;96.80;;;;;;5019424;28;20026;-67
2021/07/09 03:20:31;;;;;;;14.05;8.68;;;14.80;96.80;;;;;;5016530;28;20106;-66
2021/07/09 03:22:57;;;;;;;12.60;8.90;;;14.70;96.90;;;;;;5021441;28;20472;-67
2021/07/09 03:25:22;;;;;;;15.60;8.95;;;14.70;97.00;;;;;;5018098;28;20451;-67
2021/07/09 03:27:48;;;;;;;14.85;9.98;;;14.60;97.00;;;;;;5024458;28;20112;-66
2021/07/09 03:30:14;;;;;;;18.45;9.82;;;14.60;97.10;;;;;;5018836;28;20493;-67
2021/07/09 03:32:39;;;;;;;16.10;9.60;;;14.60;97.20;;;;;;5029522;28;20476;-67
2021/07/09 03:35:07;;;;;;;14.25;9.00;;;14.50;97.20;;;;;;5033716;28;20033;-66
2021/07/09 03:37:33;;;;;;;16.13;9.15;;;14.50;97.30;;;;;;5028130;28;20030;-67
2021/07/09 03:39:59;;;;;;;11.57;8.57;;;14.50;97.30;;;;;;5033952;28;20116;-67
2021/07/09 03:42:24;;;;;;;16.38;9.27;;;14.50;97.30;;;;;;5030499;28;20449;-67
2021/07/09 03:44:50;;;;;;;14.95;9.00;;;14.50;97.40;;;;;;5027197;28;20025;-67
2021/07/09 03:47:15;;;;;;;16.73;10.35;;;14.50;97.40;;;;;;5021494;28;20037;-66
2021/07/09 03:49:41;;;;;;;17.77;9.48;;;14.50;97.40;;;;;;5015535;28;20048;-66
2021/07/09 03:52:07;;;;;;;16.90;10.45;;;14.40;97.30;;;;;;5029713;28;20037;-66
2021/07/09 03:54:33;;;;;;;15.15;9.80;;;14.40;97.40;;;;;;5027576;28;20034;-67
2021/07/09 03:56:59;;;;;;;16.20;10.23;;;14.40;97.70;;;;;;5033393;28;20379;-66
2021/07/09 03:59:24;;;;;;;17.80;10.82;;;14.30;97.40;;;;;;5026701;28;20034;-66
2021/07/09 04:01:50;;;;;;;16.80;10.93;;;14.30;97.40;;;;;;5029360;28;20044;-66
2021/07/09 04:04:15;;;;;;;19.60;10.75;;;14.40;97.50;;;;;;5031498;28;20495;-66
2021/07/09 04:06:41;;;;;;;21.17;11.43;;;14.40;97.50;;;;;;5031137;28;20038;-67
2021/07/09 04:09:06;;;;;;;17.90;10.95;;;14.40;97.80;;;;;;5031514;28;20021;-66
2021/07/09 04:11:32;;;;;;;18.65;11.05;;;14.40;97.50;;;;;;5033452;28;20369;-67
2021/07/09 04:13:57;;;;;;;20.73;11.65;;;14.40;97.60;;;;;;5030624;28;20360;-66
2021/07/09 04:16:23;;;;;;;24.83;12.68;;;14.40;97.50;;;;;;5029286;28;20057;-66
2021/07/09 04:18:48;;;;;;;20.45;12.45;;;14.40;97.60;;;;;;5033413;28;20029;-67
2021/07/09 04:21:14;;;;;;;20.20;11.80;;;14.40;97.60;;;;;;5020925;28;20041;-68
2021/07/09 04:23:39;;;;;;;17.52;11.60;;;14.40;97.60;;;;;;5022304;28;20034;-67
2021/07/09 04:26:05;;;;;;;18.58;11.52;;;14.40;97.60;;;;;;5028767;28;20061;-67
2021/07/09 04:28:30;;;;;;;21.75;13.10;;;14.50;97.60;;;;;;5032963;28;20037;-67
2021/07/09 04:30:56;;;;;;;19.77;12.55;;;14.50;97.60;;;;;;5031164;28;20032;-67
2021/07/09 04:33:25;;;;;;;23.60;13.60;;;14.50;97.50;;;;;;5028517;28;20037;-67
2021/07/09 04:35:51;;;;;;;22.10;13.75;;;14.50;97.50;;;;;;5025625;28;20073;-67
2021/07/09 04:38:18;;;;;;;21.10;12.52;;;14.50;97.60;;;;;;5029743;28;20464;-68
2021/07/09 04:40:44;;;;;;;22.67;13.00;;;14.50;97.60;;;;;;5023631;28;20384;-68
2021/07/09 04:43:09;;;;;;;23.70;13.60;;;14.60;97.60;;;;;;5031917;28;20041;-68
2021/07/09 04:45:35;;;;;;;26.50;14.55;;;14.60;97.60;;;;;;5026466;28;20204;-68
2021/07/09 04:48:00;;;;;;;21.35;12.85;;;14.60;97.60;;;;;;5026366;28;20095;-68
2021/07/09 04:50:26;;;;;;;23.13;13.25;;;14.70;97.60;;;;;;5027569;28;20025;-67
2021/07/09 04:52:52;;;;;;;23.02;12.93;;;14.70;97.50;;;;;;5031151;28;20067;-67
2021/07/09 04:55:17;;;;;;;19.75;12.48;;;14.70;97.40;;;;;;5032876;28;20029;-68
2021/07/09 04:57:43;;;;;;;20.80;12.15;;;14.80;97.50;;;;;;5030919;28;20048;-67
2021/07/09 05:00:09;;;;;;;19.33;12.13;;;14.90;97.70;;;;;;5034148;28;20034;-67
2021/07/09 05:02:47;;;;;;;18.55;10.75;;;15.20;98.00;;;;;;5029412;28;20042;-69
2021/07/09 05:05:17;;;;;;;18.10;10.82;;;15.60;98.20;;;;;;5022004;28;20041;-68
2021/07/09 05:07:49;;;;;;;16.58;10.70;;;16.00;98.00;;;;;;5022797;28;20047;-69
2021/07/09 05:10:24;;;;;;;16.85;10.63;;;16.40;97.70;;;;;;5024927;28;20025;-69
2021/07/09 05:12:49;;;;;;;16.98;9.77;;;16.90;97.40;;;;;;5018034;28;20029;-65
2021/07/09 05:15:15;;;;;;;14.75;9.75;;;17.20;96.90;;;;;;5029450;28;20051;-67
2021/07/09 05:17:52;;;;;;;14.57;10.23;;;17.50;96.50;;;;;;5029606;28;20450;-68
2021/07/09 05:20:23;;;;;;;13.45;9.88;;;17.80;96.00;;;;;;5042231;28;20080;-68
2021/07/09 05:22:58;;;;;;;13.30;9.38;;;18.00;95.50;;;;;;5021310;28;20075;-68
2021/07/09 05:25:32;;;;;;;17.52;10.68;;;18.20;95.10;;;;;;5030229;28;20040;-68
2021/07/09 05:28:06;;;;;;;13.40;9.73;;;18.40;94.80;;;;;;5028933;28;20052;-69
2021/07/09 05:30:49;;;;;;;18.42;10.98;;;18.70;94.40;;;;;;5027371;28;20483;-68
2021/07/09 05:33:23;;;;;;;16.33;10.27;;;18.90;93.70;;;;;;5023833;28;20025;-69
2021/07/09 05:35:55;;;;;;;14.50;9.90;;;19.00;93.30;;;;;;5029943;28;20021;-70
2021/07/09 05:38:29;;;;;;;17.40;11.20;;;19.20;92.80;;;;;;5043077;28;20480;-68
2021/07/09 05:41:03;;;;;;;17.15;10.98;;;19.20;92.30;;;;;;5012220;28;20041;-69
2021/07/09 05:43:35;;;;;;;15.88;10.57;;;19.20;91.80;;;;;;5014366;28;20032;-70
2021/07/09 05:46:19;;;;;;;14.05;10.45;;;19.20;91.60;;;;;;5030867;28;20159;-69
2021/07/09 05:48:52;;;;;;;;;;;19.20;91.50;;;;;;5030200;28;20391;-69
2021/07/09 05:51:18;;;;;;;15.57;10.70;;;19.30;91.70;;;;;;5032396;28;19909;-68
2021/07/09 05:53:44;;;;;;;17.70;12.60;;;19.30;91.20;;;;;;5026433;28;20037;-69
2021/07/09 05:56:10;;;;;;;14.48;10.95;;;19.30;90.70;;;;;;5023168;28;20026;-67
2021/07/09 05:58:35;;;;;;;17.52;12.63;;;19.30;90.30;;;;;;5031849;28;20033;-67
2021/07/09 06:01:01;;;;;;;19.20;12.55;;;19.30;90.00;;;;;;5029426;28;20021;-67
2021/07/09 06:03:26;;;;;;;16.85;11.70;;;19.20;89.90;;;;;;5029646;28;20502;-67
2021/07/09 06:05:52;;;;;;;18.08;12.73;;;19.10;90.00;;;;;;5027933;28;20437;-68
2021/07/09 06:08:17;;;;;;;15.23;10.98;;;19.00;89.80;;;;;;5032302;28;20120;-68
2021/07/09 06:10:43;;;;;;;15.23;11.00;;;19.00;89.50;;;;;;5030869;28;20034;-67
2021/07/09 06:13:09;;;;;;;17.98;11.50;;;18.90;89.20;;;;;;5031197;28;20112;-68
2021/07/09 06:15:35;;;;;;;15.63;11.57;;;19.00;89.40;;;;;;5030212;28;20049;-68
2021/07/09 06:18:01;;;;;;;18.08;11.18;;;19.00;89.40;;;;;;5022651;28;20026;-69
2021/07/09 06:20:26;;;;;;;15.30;11.27;;;19.00;89.00;;;;;;5027214;28;20033;-68
2021/07/09 06:22:53;;;;;;;15.82;12.25;;;18.90;89.20;;;;;;5029623;28;20029;-69
2021/07/09 06:25:18;;;;;;;16.67;11.52;;;18.90;89.30;;;;;;5030439;28;20033;-68
2021/07/09 06:27:44;;;;;;;17.50;10.90;;;19.00;89.30;;;;;;5030526;28;20104;-68
2021/07/09 06:30:11;;;;;;;14.38;10.85;;;19.00;89.10;;;;;;5032859;28;20379;-69
2021/07/09 06:32:37;;;;;;;17.38;12.00;;;19.10;88.80;;;;;;5030694;28;20029;-68
2021/07/09 06:35:05;;;;;;;17.38;11.95;;;19.10;88.60;;;;;;5032896;28;20017;-66
2021/07/09 06:37:30;;;;;;;19.35;13.65;;;19.10;88.90;;;;;;5032787;28;20065;-67
2021/07/09 06:39:56;;;;;;;19.38;14.10;;;19.10;89.00;;;;;;5031564;28;20131;-68
2021/07/09 06:42:21;;;;;;;20.17;12.65;;;19.20;88.90;;;;;;5030242;28;20053;-67
2021/07/09 06:44:47;;;;;;;17.70;12.43;;;19.20;89.10;;;;;;5030435;28;20029;-67
2021/07/09 06:47:12;;;;;;;19.58;12.75;;;19.20;88.80;;;;;;5030960;28;20415;-67
2021/07/09 06:49:38;;;;;;;18.10;12.93;;;19.20;88.90;;;;;;5027436;28;20079;-67
2021/07/09 06:52:04;;;;;;;17.35;12.75;;;19.20;88.40;;;;;;5029806;28;20057;-67
2021/07/09 06:54:29;;;;;;;19.77;12.57;;;19.10;88.20;;;;;;5030048;28;20438;-68
2021/07/09 06:56:55;;;;;;;17.98;13.15;;;19.10;88.20;;;;;;5029464;28;20029;-67
2021/07/09 06:59:20;;;;;;;17.77;12.82;;;19.20;88.30;;;;;;5033494;28;20112;-67
2021/07/09 07:01:47;;;;;;;18.88;13.30;;;19.30;88.30;;;;;;5028072;28;20427;-67
2021/07/09 07:04:14;;;;;;;22.48;13.43;;;19.40;88.10;;;;;;5035583;28;20060;-67
2021/07/09 07:06:40;;;;;;;21.13;14.30;;;19.50;87.50;;;;;;5033233;28;20053;-67
2021/07/09 07:09:05;;;;;;;16.55;12.00;;;19.60;87.30;;;;;;5033511;28;20056;-67
2021/07/09 07:11:31;;;;;;;16.95;12.02;;;19.60;87.80;;;;;;5033302;28;20105;-67
2021/07/09 07:13:57;;;;;;;17.30;12.45;;;19.70;87.30;;;;;;5034163;28;20117;-68
2021/07/09 07:16:22;;;;;;;17.00;12.35;;;19.80;86.40;;;;;;5034723;28;20087;-67
2021/07/09 07:18:48;;;;;;;21.35;13.60;;;19.80;86.50;;;;;;5030300;28;20471;-68
2021/07/09 07:21:13;;;;;;;18.88;12.57;;;19.80;85.90;;;;;;5033062;28;20029;-67
2021/07/09 07:23:39;;;;;;;16.20;11.65;;;19.80;85.90;;;;;;5028537;28;20026;-67
2021/07/09 07:26:05;;;;;;;11.65;9.52;;;19.90;86.60;;;;;;5031703;28;20239;-67
2021/07/09 07:28:30;;;;;;;15.85;10.65;;;19.90;85.80;;;;;;5030018;28;20040;-68
2021/07/09 07:30:56;;;;;;;17.55;10.82;;;19.90;85.20;;;;;;5031429;28;20044;-67
2021/07/09 07:33:21;;;;;;;15.77;10.68;;;20.00;85.20;;;;;;5032197;28;20025;-67
2021/07/09 07:35:47;;;;;;;14.23;9.10;;;20.00;85.00;;;;;;5029426;28;20029;-67
2021/07/09 07:38:12;;;;;;;18.30;11.30;;;20.10;84.80;;;;;;5028733;28;20046;-68
2021/07/09 07:40:38;;;;;;;14.90;10.57;;;20.10;84.20;;;;;;5032919;28;20026;-68
2021/07/09 07:43:05;;;;;;;21.58;12.50;;;20.10;84.10;;;;;;5032569;28;20040;-67
2021/07/09 07:45:31;;;;;;;15.70;10.25;;;20.10;84.10;;;;;;5032315;28;20124;-67
2021/07/09 07:47:56;;;;;;;16.45;11.10;;;20.10;84.60;;;;;;5032099;28;20180;-67
2021/07/09 07:50:22;;;;;;;15.45;9.98;;;20.20;84.60;;;;;;5032973;28;20036;-67
2021/07/09 07:52:53;;;;;;;14.68;10.05;;;20.20;84.70;;;;;;5031661;28;20030;-66
2021/07/09 07:55:19;;;;;;;12.13;8.63;;;20.40;84.40;;;;;;5030094;28;20037;-68
2021/07/09 07:57:44;;;;;;;15.57;8.77;;;20.50;83.80;;;;;;5028781;28;20384;-67
2021/07/09 08:00:11;;;;;;;12.10;8.45;;;20.60;83.10;;;;;;5031988;28;20526;-67
2021/07/09 08:02:37;;;;;;;12.70;9.48;;;20.60;82.30;;;;;;5028385;28;20032;-68
2021/07/09 08:05:04;;;;;;;13.07;8.57;;;20.60;82.30;;;;;;5030105;28;20476;-67
2021/07/09 08:07:30;;;;;;;14.60;8.50;;;20.60;82.80;;;;;;5033930;28;20030;-67
2021/07/09 08:09:55;;;;;;;9.13;7.00;;;20.70;82.10;;;;;;5037954;28;20025;-67
2021/07/09 08:12:21;;;;;;;13.05;7.80;;;20.80;81.20;;;;;;5027609;28;20155;-68
2021/07/09 08:14:46;;;;;;;10.85;7.50;;;20.90;81.10;;;;;;5036973;28;20387;-68
2021/07/09 08:17:12;;;;;;;10.32;7.70;;;20.90;81.10;;;;;;5032015;28;20212;-67
2021/07/09 08:19:37;;;;;;;9.57;6.60;;;21.00;80.90;;;;;;5032144;28;20029;-67
2021/07/09 08:22:03;;;;;;;16.13;9.27;;;21.10;81.60;;;;;;5032939;28;20057;-67
2021/07/09 08:24:29;;;;;;;9.32;6.65;;;21.10;81.30;;;;;;5034129;28;20039;-67
2021/07/09 08:26:54;;;;;;;8.63;6.18;;;21.30;81.50;;;;;;5031606;28;20025;-67
2021/07/09 08:29:20;;;;;;;9.23;6.13;;;21.50;81.30;;;;;;5020275;28;20029;-67
2021/07/09 08:31:45;;;;;;;5.68;3.80;;;21.60;80.00;;;;;;5016091;28;20449;-67
2021/07/09 08:34:11;;;;;;;4.93;3.92;;;21.60;79.20;;;;;;5022942;28;20034;-67
2021/07/09 08:36:36;;;;;;;5.05;3.65;;;21.60;78.60;;;;;;5035047;28;20029;-67
2021/07/09 08:39:04;;;;;;;4.43;3.42;;;21.60;78.60;;;;;;5034142;28;20029;-67
2021/07/09 08:41:29;;;;;;;7.93;5.03;;;21.60;78.60;;;;;;5023328;28;20112;-67
2021/07/09 08:43:55;;;;;;;8.10;5.60;;;21.70;78.80;;;;;;5024481;28;20092;-66
2021/07/09 08:46:22;;;;;;;8.35;5.40;;;21.60;78.50;;;;;;5030441;28;20529;-67
2021/07/09 08:48:48;;;;;;;7.53;5.43;;;21.80;78.50;;;;;;5032558;28;20017;-67
2021/07/09 08:51:13;;;;;;;10.30;5.35;;;21.90;78.30;;;;;;5033332;28;20029;-67
2021/07/09 08:53:39;;;;;;;10.00;6.53;;;22.10;78.60;;;;;;5032541;28;20420;-67
2021/07/09 08:56:05;;;;;;;7.18;5.55;;;22.10;78.20;;;;;;5033772;28;20033;-66
2021/07/09 08:58:31;;;;;;;8.13;6.22;;;22.20;77.70;;;;;;5049131;28;20112;-69
2021/07/09 09:00:57;;;;;;;10.45;7.05;;;22.10;77.80;;;;;;5033401;28;20365;-68
2021/07/09 09:03:25;;;;;;;14.63;8.60;;;22.20;78.10;;;;;;5028511;28;20087;-66
2021/07/09 09:05:52;;;;;;;12.35;8.57;;;22.20;77.30;;;;;;5031401;28;20032;-67
2021/07/09 09:08:22;;;;;;;11.80;7.95;;;22.30;76.70;;;;;;5033033;28;20033;-67
2021/07/09 09:10:50;;;;;;;8.63;6.45;;;22.40;76.90;;;;;;5027824;28;20022;-68
2021/07/09 09:13:22;;;;;;;11.90;6.97;;;22.40;76.80;;;;;;5026680;28;20025;-67
2021/07/09 09:16:01;;;;;;;13.48;8.23;;;22.40;77.10;;;;;;5026912;28;20053;-67
2021/07/09 09:18:33;;;;;;;9.70;7.50;;;22.40;77.10;;;;;;5012718;28;20033;-68
2021/07/09 09:21:07;;;;;;;9.95;7.53;;;22.50;76.90;;;;;;5014348;28;20032;-68
2021/07/09 09:23:38;;;;;;;11.07;7.57;;;22.50;77.20;;;;;;5033744;28;20029;-68
2021/07/09 09:26:06;;;;;;;13.50;8.73;;;22.70;77.50;;;;;;5023309;28;20025;-68
2021/07/09 09:28:35;;;;;;;13.20;9.88;;;22.80;76.70;;;;;;5033729;28;20061;-68
2021/07/09 09:31:00;;;;;;;11.55;9.10;;;22.70;76.90;;;;;;5032776;28;20021;-68
2021/07/09 09:33:35;;;;;;;13.60;9.85;;;22.60;77.70;;;;;;5029853;28;20084;-68
2021/07/09 09:36:06;;;;;;;12.98;9.77;;;22.60;78.20;;;;;;5020639;28;20029;-67
2021/07/09 09:38:32;;;;;;;13.73;9.05;;;22.70;77.10;;;;;;5025043;28;20108;-68
2021/07/09 09:40:59;;;;;;;13.40;10.18;;;22.90;77.00;;;;;;5025487;28;20114;-68
2021/07/09 09:43:33;;;;;;;11.23;9.32;;;23.20;75.60;;;;;;5030463;28;20035;-68
2021/07/09 09:46:03;;;;;;;13.77;10.98;;;23.00;75.90;;;;;;5030854;28;20033;-68
2021/07/09 09:48:38;;;;;;;17.48;11.07;;;22.90;76.00;;;;;;5032165;28;20545;-68
2021/07/09 09:51:24;;;;;;;14.35;10.40;;;22.70;76.30;;;;;;5025028;28;20581;-68
2021/07/09 09:54:04;;;;;;;12.55;9.60;;;22.60;76.70;;;;;;5025933;28;20398;-68
2021/07/09 09:56:46;;;;;;;11.52;9.10;;;22.70;76.60;;;;;;5026730;28;20112;-68
2021/07/09 09:59:25;;;;;;;14.10;10.43;;;22.90;76.00;;;;;;5017369;28;20460;-65
2021/07/09 10:01:54;;;;;;;15.30;11.60;;;22.70;76.00;;;;;;5020461;28;20056;-67
2021/07/09 10:04:22;;;;;;;15.40;11.95;;;22.80;76.50;;;;;;5026264;28;20035;-67
2021/07/09 10:06:48;;;;;;;16.63;11.57;;;23.00;76.10;;;;;;5039365;28;20025;-68
2021/07/09 10:09:15;;;;;;;15.60;11.93;;;23.10;76.10;;;;;;5032087;28;20538;-67
2021/07/09 10:11:41;;;;;;;18.50;12.88;;;23.00;76.30;;;;;;5031599;28;20049;-68
2021/07/09 10:14:12;;;;;;;18.15;12.57;;;23.10;75.60;;;;;;5030268;28;20026;-67
2021/07/09 10:16:41;;;;;;;17.63;14.10;;;23.00;75.30;;;;;;5031279;28;20467;-67
2021/07/09 10:19:11;;;;;;;21.10;15.10;;;22.80;75.30;;;;;;5022921;28;20028;-68
2021/07/09 10:21:38;;;;;;;17.35;12.93;;;22.60;76.40;;;;;;5028625;28;20030;-68
2021/07/09 10:24:08;;;;;;;16.10;12.43;;;22.50;77.30;;;;;;5030696;28;20079;-67
2021/07/09 10:26:41;;;;;;;16.30;12.80;;;22.50;76.40;;;;;;5031422;28;20483;-67
2021/07/09 10:29:11;;;;;;;16.40;11.45;;;22.80;75.80;;;;;;5029824;28;20026;-67
2021/07/09 10:31:37;;;;;;;15.40;11.95;;;23.10;75.40;;;;;;5021759;28;20029;-67
2021/07/09 10:34:22;;;;;;;17.27;13.02;;;23.30;74.40;;;;;;5025956;28;20029;-68
2021/07/09 10:37:15;;;;;;;15.43;11.55;;;23.40;73.20;;;;;;5034154;28;20369;-67
2021/07/09 10:39:43;;;;;;;16.42;11.45;;;23.40;72.60;;;;;;5035187;28;20384;-67
2021/07/09 10:42:21;;;;;;;17.90;13.63;;;23.50;72.90;;;;;;5035759;28;20534;-67
2021/07/09 10:45:10;;;;;;;18.20;12.77;;;23.60;73.10;;;;;;5034931;28;20408;-67
2021/07/09 10:47:52;;;;;;;18.38;12.77;;;23.80;72.90;;;;;;5033971;28;20037;-67
2021/07/09 10:50:42;;;;;;;16.17;12.32;;;23.90;72.00;;;;;;5027941;28;20416;-66
2021/07/09 10:53:10;;;;;;;14.95;11.45;;;23.70;71.10;;;;;;5024663;28;20083;-67
2021/07/09 10:55:44;;;;;;;16.17;11.93;;;23.60;71.70;;;;;;5035056;28;20097;-67
2021/07/09 10:58:10;;;;;;;14.82;12.23;;;23.70;71.50;;;;;;5035006;28;20030;-67
2021/07/09 11:00:55;;;;;;;17.00;12.68;;;23.80;71.50;;;;;;5030144;28;20029;-68
2021/07/09 11:03:37;;;;;;;13.93;11.57;;;23.90;70.80;;;;;;5047518;28;20392;-67
2021/07/09 11:06:13;;;;;;;14.88;11.20;;;23.80;71.00;;;;;;5030659;28;20029;-67
2021/07/09 11:08:43;;;;;;;14.43;10.32;;;23.80;71.50;;;;;;5028289;28;20029;-67
2021/07/09 11:11:14;;;;;;;9.32;6.63;;;23.90;69.40;;;;;;5042627;28;20084;-67
2021/07/09 11:13:40;;;;;;;10.73;8.40;;;23.90;68.90;;;;;;5033912;28;20033;-67
2021/07/09 11:16:25;;;;;;;12.32;9.05;;;24.00;68.90;;;;;;5034538;28;20045;-67
2021/07/09 11:18:55;;;;;;;12.65;9.73;;;24.10;69.80;;;;;;5036161;28;20025;-67
2021/07/09 11:21:30;;;;;;;12.43;9.30;;;24.40;69.60;;;;;;5029969;28;20087;-67
2021/07/09 11:24:15;;;;;;;12.90;9.57;;;24.70;68.10;;;;;;5035699;28;20133;-67
2021/07/09 11:26:43;;;;;;;12.35;9.80;;;24.90;67.30;;;;;;5032148;28;20468;-67
2021/07/09 11:29:39;;;;;;;13.57;9.52;;;24.80;66.40;;;;;;5034895;28;20021;-67
2021/07/09 11:32:14;;;;;;;13.57;11.13;;;24.70;66.90;;;;;;5032334;28;20024;-67
2021/07/09 11:34:59;;;;;;;14.48;11.45;;;24.90;66.60;;;;;;5034432;28;20096;-67
2021/07/09 11:37:27;;;;;;;14.23;10.35;;;25.10;66.10;;;;;;5032885;28;20447;-68
2021/07/09 11:39:58;;;;;;;13.00;10.63;;;25.30;65.50;;;;;;5034547;28;20037;-67
2021/07/09 11:42:27;;;;;;;16.58;11.63;;;25.40;65.10;;;;;;5027778;28;20044;-67
2021/07/09 11:45:00;;;;;;;16.25;11.63;;;25.60;64.40;;;;;;5035544;28;20025;-67
2021/07/09 11:47:28;;;;;;;16.10;10.75;;;25.80;64.60;;;;;;5023926;28;20058;-67
2021/07/09 11:50:04;;;;;;;13.15;10.57;;;25.90;63.60;;;;;;5035384;28;20494;-67
2021/07/09 11:52:36;;;;;;;13.63;10.32;;;25.80;62.30;;;;;;5033529;28;20092;-67
2021/07/09 11:55:05;;;;;;;17.52;12.77;;;25.50;63.30;;;;;;5034403;28;20436;-67
2021/07/09 11:57:35;;;;;;;16.65;11.77;;;25.30;63.80;;;;;;5034062;28;20514;-67
2021/07/09 12:00:01;;;;;;;17.25;12.18;;;25.10;64.10;;;;;;5031592;28;20539;-67
2021/07/09 12:02:28;;;;;;;15.55;11.98;;;25.10;64.30;;;;;;5032452;28;20104;-67
2021/07/09 12:04:56;;;;;;;15.68;11.77;;;25.20;64.50;;;;;;5033291;28;20117;-67
2021/07/09 12:07:23;;;;;;;16.48;11.00;;;25.20;63.70;;;;;;5031519;28;20036;-67
2021/07/09 12:09:54;;;;;;;15.68;11.13;;;25.20;64.80;;;;;;5033384;28;20025;-67
2021/07/09 12:12:22;;;;;;;12.20;9.45;;;25.30;64.20;;;;;;5029992;28;20049;-67
2021/07/09 12:15:08;;;;;;;15.00;11.63;;;25.40;64.20;;;;;;5033404;28;20052;-67
2021/07/09 12:17:38;;;;;;;13.50;9.98;;;25.30;63.20;;;;;;5033580;28;20049;-67
2021/07/09 12:20:08;;;;;;;14.30;10.15;;;24.90;64.20;;;;;;5031548;28;20586;-67
2021/07/09 12:22:53;;;;;;;13.13;9.60;;;24.60;64.70;;;;;;5028242;28;20044;-68
2021/07/09 12:25:30;;;;;;;17.80;12.73;;;24.40;65.90;;;;;;5016072;28;20030;-67
2021/07/09 12:27:59;;;;;;;16.98;13.13;;;24.30;66.50;;;;;;5033390;28;20029;-67
2021/07/09 12:30:28;;;;;;;21.15;14.80;;;24.20;67.40;;;;;;5030189;28;20030;-68
2021/07/09 12:32:58;;;;;;;19.85;14.60;;;24.10;68.40;;;;;;5040254;28;20045;-67
2021/07/09 12:35:25;;;;;;;21.48;15.07;;;24.00;68.50;;;;;;5033549;28;20033;-67
2021/07/09 12:37:59;;;;;;;18.85;13.65;;;23.80;68.70;;;;;;5032339;28;20116;-67
2021/07/09 12:40:39;;;;;;;16.55;13.40;;;23.80;69.80;;;;;;5020927;28;20523;-67